sensor_id;sensor_type;location;lat;lon;timestamp;pressure;altitude;pressure_sealevel;temperature;humidity
74868;BME280;63419;42.262;12.210;2022-09-20T00:01:29;97254.69;;;17.00;100.00
74868;BME280;63419;42.262;12.210;2022-09-20T00:03:59;97251.81;;;17.03;100.00
74868;BME280;63419;42.262;12.210;2022-09-20T00:06:29;97252.47;;;17.05;100.00
74868;BME280;63419;42.262;12.210;2022-09-20T00:08:56;97245.94;;;17.01;100.00
74868;BME280;63419;42.262;12.210;2022-09-20T00:11:28;97246.84;;;17.10;100.00
74868;BME280;63419;42.262;12.210;2022-09-20T00:13:56;97247.72;;;17.01;100.00
74868;BME280;63419;42.262;12.210;2022-09-20T00:16:30;97244.53;;;17.07;100.00
74868;BME280;63419;42.262;12.210;2022-09-20T00:19:00;97237.81;;;17.04;100.00
74868;BME280;63419;42.262;12.210;2022-09-20T00:21:30;97237.81;;;17.04;100.00
74868;BME280;63419;42.262;12.210;2022-09-20T00:23:57;97240.97;;;17.08;100.00
74868;BME280;63419;42.262;12.210;2022-09-20T00:26:26;97230.47;;;17.18;100.00
74868;BME280;63419;42.262;12.210;2022-09-20T00:28:53;97229.66;;;17.17;100.00
74868;BME280;63419;42.262;12.210;2022-09-20T00:31:19;97226.94;;;17.09;100.00
74868;BME280;63419;42.262;12.210;2022-09-20T00:33:48;97226.75;;;17.20;100.00
74868;BME280;63419;42.262;12.210;2022-09-20T00:36:32;97238.56;;;17.15;100.00
74868;BME280;63419;42.262;12.210;2022-09-20T00:39:02;97228.44;;;17.11;100.00
74868;BME280;63419;42.262;12.210;2022-09-20T00:41:30;97224.88;;;17.12;100.00
74868;BME280;63419;42.262;12.210;2022-09-20T00:43:58;97212.81;;;17.11;100.00
74868;BME280;63419;42.262;12.210;2022-09-20T00:46:51;97221.72;;;17.09;100.00
74868;BME280;63419;42.262;12.210;2022-09-20T00:49:25;97215.72;;;17.08;100.00
74868;BME280;63419;42.262;12.210;2022-09-20T00:51:59;97228.06;;;17.06;100.00
74868;BME280;63419;42.262;12.210;2022-09-20T00:54:29;97213.69;;;17.02;100.00
74868;BME280;63419;42.262;12.210;2022-09-20T00:56:56;97213.34;;;17.15;100.00
74868;BME280;63419;42.262;12.210;2022-09-20T00:59:52;97214.16;;;17.16;100.00
74868;BME280;63419;42.262;12.210;2022-09-20T01:02:30;97210.94;;;17.22;100.00
74868;BME280;63419;42.262;12.210;2022-09-20T01:05:00;97207.25;;;17.24;100.00
74868;BME280;63419;42.262;12.210;2022-09-20T01:07:28;97203.66;;;17.25;100.00
74868;BME280;63419;42.262;12.210;2022-09-20T01:09:57;97204.72;;;17.33;100.00
74868;BME280;63419;42.262;12.210;2022-09-20T01:12:29;97202.13;;;17.50;100.00
74868;BME280;63419;42.262;12.210;2022-09-20T01:14:58;97208.91;;;17.61;100.00
74868;BME280;63419;42.262;12.210;2022-09-20T01:17:33;97203.44;;;17.55;100.00
74868;BME280;63419;42.262;12.210;2022-09-20T01:20:16;97204.94;;;17.39;100.00
74868;BME280;63419;42.262;12.210;2022-09-20T01:28:26;97206.09;;;17.63;100.00
74868;BME280;63419;42.262;12.210;2022-09-20T01:31:17;97207.75;;;17.82;100.00
74868;BME280;63419;42.262;12.210;2022-09-20T01:39:28;97202.63;;;17.72;100.00
74868;BME280;63419;42.262;12.210;2022-09-20T01:42:03;97197.09;;;17.57;100.00
74868;BME280;63419;42.262;12.210;2022-09-20T01:50:50;97190.41;;;17.55;100.00
74868;BME280;63419;42.262;12.210;2022-09-20T01:56:49;97184.50;;;17.70;100.00
74868;BME280;63419;42.262;12.210;2022-09-20T02:02:08;97182.59;;;17.55;100.00
74868;BME280;63419;42.262;12.210;2022-09-20T02:19:46;97178.69;;;17.23;100.00
74868;BME280;63419;42.262;12.210;2022-09-20T02:22:50;97179.97;;;17.01;100.00
74868;BME280;63419;42.262;12.210;2022-09-20T02:47:41;97179.97;;;14.70;100.00
74868;BME280;63419;42.262;12.210;2022-09-20T03:02:09;97141.34;;;14.96;100.00
74868;BME280;63419;42.262;12.210;2022-09-20T03:13:49;97115.91;;;15.38;100.00
74868;BME280;63419;42.262;12.210;2022-09-20T03:25:40;97093.06;;;15.42;100.00
74868;BME280;63419;42.262;12.210;2022-09-20T03:37:19;97080.84;;;16.09;100.00
74868;BME280;63419;42.262;12.210;2022-09-20T03:42:51;97076.75;;;16.07;100.00
74868;BME280;63419;42.262;12.210;2022-09-20T04:05:57;97099.06;;;16.09;100.00
74868;BME280;63419;42.262;12.210;2022-09-20T04:11:49;97104.78;;;16.23;100.00
74868;BME280;63419;42.262;12.210;2022-09-20T04:14:39;97098.66;;;16.14;100.00
74868;BME280;63419;42.262;12.210;2022-09-20T04:17:26;97096.56;;;16.17;100.00
74868;BME280;63419;42.262;12.210;2022-09-20T04:20:36;97097.69;;;16.43;100.00
74868;BME280;63419;42.262;12.210;2022-09-20T04:23:35;97107.84;;;14.52;100.00
74868;BME280;63419;42.262;12.210;2022-09-20T04:26:03;97097.03;;;14.37;100.00
74868;BME280;63419;42.262;12.210;2022-09-20T04:29:23;97101.94;;;14.00;100.00
74868;BME280;63419;42.262;12.210;2022-09-20T04:35:35;97093.56;;;14.68;100.00
74868;BME280;63419;42.262;12.210;2022-09-20T04:38:23;97076.78;;;14.91;100.00
74868;BME280;63419;42.262;12.210;2022-09-20T04:58:38;97086.38;;;15.96;100.00
74868;BME280;63419;42.262;12.210;2022-09-20T05:10:23;97094.94;;;15.59;100.00
74868;BME280;63419;42.262;12.210;2022-09-20T05:22:51;97091.19;;;15.91;100.00
74868;BME280;63419;42.262;12.210;2022-09-20T05:28:59;97096.91;;;16.32;100.00
74868;BME280;63419;42.262;12.210;2022-09-20T05:31:40;97111.81;;;16.12;100.00
74868;BME280;63419;42.262;12.210;2022-09-20T05:40:37;97116.97;;;16.50;100.00
74868;BME280;63419;42.262;12.210;2022-09-20T05:43:21;97121.81;;;16.45;100.00
74868;BME280;63419;42.262;12.210;2022-09-20T05:46:03;97112.75;;;16.49;100.00
74868;BME280;63419;42.262;12.210;2022-09-20T06:05:03;97121.41;;;17.49;100.00
74868;BME280;63419;42.262;12.210;2022-09-20T06:22:43;97143.63;;;17.79;100.00
74868;BME280;63419;42.262;12.210;2022-09-20T06:25:38;97139.50;;;17.68;100.00
74868;BME280;63419;42.262;12.210;2022-09-20T06:28:41;97147.50;;;17.75;100.00
74868;BME280;63419;42.262;12.210;2022-09-20T06:31:25;97150.47;;;17.80;100.00
74868;BME280;63419;42.262;12.210;2022-09-20T06:33:59;97154.47;;;17.48;100.00
74868;BME280;63419;42.262;12.210;2022-09-20T06:36:33;97151.28;;;17.55;100.00
74868;BME280;63419;42.262;12.210;2022-09-20T06:42:20;97145.63;;;17.23;100.00
74868;BME280;63419;42.262;12.210;2022-09-20T06:44:46;97146.84;;;17.73;100.00
74868;BME280;63419;42.262;12.210;2022-09-20T06:47:15;97143.78;;;18.22;100.00
74868;BME280;63419;42.262;12.210;2022-09-20T06:49:41;97156.00;;;17.95;100.00
74868;BME280;63419;42.262;12.210;2022-09-20T06:52:15;97163.50;;;17.72;100.00
74868;BME280;63419;42.262;12.210;2022-09-20T06:55:02;97158.50;;;17.61;100.00
74868;BME280;63419;42.262;12.210;2022-09-20T06:57:35;97164.31;;;17.55;100.00
74868;BME280;63419;42.262;12.210;2022-09-20T07:00:05;97156.56;;;17.45;100.00
74868;BME280;63419;42.262;12.210;2022-09-20T07:02:31;97160.09;;;17.80;100.00
74868;BME280;63419;42.262;12.210;2022-09-20T07:04:57;97153.94;;;18.33;100.00
74868;BME280;63419;42.262;12.210;2022-09-20T07:07:26;97159.03;;;18.77;100.00
74868;BME280;63419;42.262;12.210;2022-09-20T07:09:52;97178.25;;;19.02;100.00
74868;BME280;63419;42.262;12.210;2022-09-20T07:12:18;97184.47;;;19.10;100.00
74868;BME280;63419;42.262;12.210;2022-09-20T07:14:45;97189.75;;;19.34;100.00
74868;BME280;63419;42.262;12.210;2022-09-20T07:17:10;97190.09;;;19.56;100.00
74868;BME280;63419;42.262;12.210;2022-09-20T07:19:37;97191.09;;;19.96;100.00
74868;BME280;63419;42.262;12.210;2022-09-20T07:22:03;97193.53;;;19.97;100.00
74868;BME280;63419;42.262;12.210;2022-09-20T07:24:29;97193.47;;;20.47;100.00
74868;BME280;63419;42.262;12.210;2022-09-20T07:27:04;97198.00;;;20.53;100.00
74868;BME280;63419;42.262;12.210;2022-09-20T07:29:31;97204.38;;;20.59;100.00
74868;BME280;63419;42.262;12.210;2022-09-20T07:31:58;97212.59;;;20.64;100.00
74868;BME280;63419;42.262;12.210;2022-09-20T07:34:25;97219.84;;;20.37;100.00
74868;BME280;63419;42.262;12.210;2022-09-20T07:37:16;97214.41;;;20.63;100.00
74868;BME280;63419;42.262;12.210;2022-09-20T07:39:44;97222.00;;;20.89;100.00
74868;BME280;63419;42.262;12.210;2022-09-20T07:42:11;97228.34;;;21.03;100.00
74868;BME280;63419;42.262;12.210;2022-09-20T07:44:37;97234.00;;;20.84;100.00
74868;BME280;63419;42.262;12.210;2022-09-20T07:47:08;97242.28;;;20.96;100.00
74868;BME280;63419;42.262;12.210;2022-09-20T07:49:35;97246.81;;;21.10;100.00
74868;BME280;63419;42.262;12.210;2022-09-20T07:52:02;97244.66;;;21.14;100.00
74868;BME280;63419;42.262;12.210;2022-09-20T07:54:28;97246.00;;;21.49;100.00
74868;BME280;63419;42.262;12.210;2022-09-20T07:56:54;97258.84;;;21.36;100.00
74868;BME280;63419;42.262;12.210;2022-09-20T07:59:21;97257.88;;;20.97;100.00
74868;BME280;63419;42.262;12.210;2022-09-20T08:01:51;97257.69;;;21.30;100.00
74868;BME280;63419;42.262;12.210;2022-09-20T08:04:17;97268.28;;;21.76;100.00
74868;BME280;63419;42.262;12.210;2022-09-20T08:06:45;97270.94;;;21.45;100.00
74868;BME280;63419;42.262;12.210;2022-09-20T08:09:12;97271.09;;;21.75;100.00
74868;BME280;63419;42.262;12.210;2022-09-20T08:11:41;97276.81;;;21.78;100.00
74868;BME280;63419;42.262;12.210;2022-09-20T08:14:14;97274.66;;;21.82;100.00
74868;BME280;63419;42.262;12.210;2022-09-20T08:16:47;97275.19;;;22.00;100.00
74868;BME280;63419;42.262;12.210;2022-09-20T08:19:21;97282.34;;;22.30;100.00
74868;BME280;63419;42.262;12.210;2022-09-20T08:21:49;97280.38;;;22.47;100.00
74868;BME280;63419;42.262;12.210;2022-09-20T08:24:19;97283.66;;;22.49;100.00
74868;BME280;63419;42.262;12.210;2022-09-20T08:26:53;97282.41;;;22.21;100.00
74868;BME280;63419;42.262;12.210;2022-09-20T08:29:19;97281.94;;;22.41;100.00
74868;BME280;63419;42.262;12.210;2022-09-20T08:31:45;97294.44;;;22.39;100.00
74868;BME280;63419;42.262;12.210;2022-09-20T08:34:14;97297.19;;;22.90;100.00
74868;BME280;63419;42.262;12.210;2022-09-20T08:36:45;97302.81;;;23.02;100.00
74868;BME280;63419;42.262;12.210;2022-09-20T08:39:13;97305.19;;;23.12;100.00
74868;BME280;63419;42.262;12.210;2022-09-20T08:41:49;97307.00;;;23.26;100.00
74868;BME280;63419;42.262;12.210;2022-09-20T08:44:33;97301.22;;;23.52;100.00
74868;BME280;63419;42.262;12.210;2022-09-20T08:47:23;97309.75;;;23.54;100.00
74868;BME280;63419;42.262;12.210;2022-09-20T08:49:51;97313.09;;;23.63;100.00
74868;BME280;63419;42.262;12.210;2022-09-20T08:52:29;97310.28;;;24.29;100.00
74868;BME280;63419;42.262;12.210;2022-09-20T08:54:57;97308.44;;;24.23;100.00
74868;BME280;63419;42.262;12.210;2022-09-20T08:57:30;97314.94;;;24.27;100.00
74868;BME280;63419;42.262;12.210;2022-09-20T09:00:03;97308.88;;;24.27;100.00
74868;BME280;63419;42.262;12.210;2022-09-20T09:02:32;97313.91;;;25.06;100.00
74868;BME280;63419;42.262;12.210;2022-09-20T09:04:59;97305.66;;;25.23;100.00
74868;BME280;63419;42.262;12.210;2022-09-20T09:07:26;97306.22;;;25.12;100.00
74868;BME280;63419;42.262;12.210;2022-09-20T09:09:55;97297.63;;;25.44;100.00
74868;BME280;63419;42.262;12.210;2022-09-20T09:12:29;97310.53;;;25.74;100.00
74868;BME280;63419;42.262;12.210;2022-09-20T09:15:29;97301.38;;;25.22;100.00
74868;BME280;63419;42.262;12.210;2022-09-20T09:17:57;97304.34;;;25.40;100.00
74868;BME280;63419;42.262;12.210;2022-09-20T09:20:24;97305.22;;;25.68;100.00
74868;BME280;63419;42.262;12.210;2022-09-20T09:23:02;97301.47;;;26.10;100.00
74868;BME280;63419;42.262;12.210;2022-09-20T09:25:38;97302.19;;;25.77;100.00
74868;BME280;63419;42.262;12.210;2022-09-20T09:30:42;97300.78;;;25.88;100.00
74868;BME280;63419;42.262;12.210;2022-09-20T09:33:24;97302.88;;;26.13;100.00
74868;BME280;63419;42.262;12.210;2022-09-20T09:38:40;97305.75;;;26.31;100.00
74868;BME280;63419;42.262;12.210;2022-09-20T09:41:24;97308.19;;;26.46;100.00
74868;BME280;63419;42.262;12.210;2022-09-20T09:44:29;97304.50;;;26.87;100.00
74868;BME280;63419;42.262;12.210;2022-09-20T09:46:57;97311.44;;;26.55;100.00
74868;BME280;63419;42.262;12.210;2022-09-20T09:49:31;97301.69;;;26.69;100.00
74868;BME280;63419;42.262;12.210;2022-09-20T09:52:26;97299.25;;;26.67;100.00
74868;BME280;63419;42.262;12.210;2022-09-20T09:55:00;97305.75;;;27.82;100.00
74868;BME280;63419;42.262;12.210;2022-09-20T10:00:52;97300.53;;;28.32;100.00
74868;BME280;63419;42.262;12.210;2022-09-20T10:03:27;97294.44;;;28.75;100.00
74868;BME280;63419;42.262;12.210;2022-09-20T10:06:26;97300.44;;;26.11;100.00
74868;BME280;63419;42.262;12.210;2022-09-20T10:09:12;97295.19;;;27.75;100.00
74868;BME280;63419;42.262;12.210;2022-09-20T10:29:45;97270.44;;;30.40;100.00
74868;BME280;63419;42.262;12.210;2022-09-20T10:32:57;97276.44;;;30.35;100.00
74868;BME280;63419;42.262;12.210;2022-09-20T10:35:57;97274.09;;;30.27;100.00
74868;BME280;63419;42.262;12.210;2022-09-20T10:41:42;97275.63;;;29.32;100.00
74868;BME280;63419;42.262;12.210;2022-09-20T10:47:15;97275.88;;;29.31;100.00
74868;BME280;63419;42.262;12.210;2022-09-20T10:56:30;97262.75;;;32.74;100.00
74868;BME280;63419;42.262;12.210;2022-09-20T10:59:44;97254.47;;;32.97;100.00
74868;BME280;63419;42.262;12.210;2022-09-20T11:03:08;97252.22;;;33.83;100.00
74868;BME280;63419;42.262;12.210;2022-09-20T11:06:00;97257.66;;;33.93;100.00
74868;BME280;63419;42.262;12.210;2022-09-20T11:08:36;97260.38;;;33.44;100.00
74868;BME280;63419;42.262;12.210;2022-09-20T11:11:16;97248.53;;;34.64;100.00
74868;BME280;63419;42.262;12.210;2022-09-20T11:13:57;97246.28;;;35.97;100.00
74868;BME280;63419;42.262;12.210;2022-09-20T11:22:11;97241.97;;;36.43;100.00
74868;BME280;63419;42.262;12.210;2022-09-20T11:25:51;97245.69;;;36.52;100.00
74868;BME280;63419;42.262;12.210;2022-09-20T11:28:00;97234.44;;;38.63;90.28
74868;BME280;63419;42.262;12.210;2022-09-20T11:30:52;97231.44;;;38.11;87.23
74868;BME280;63419;42.262;12.210;2022-09-20T11:33:30;97239.59;;;36.20;90.52
74868;BME280;63419;42.262;12.210;2022-09-20T11:36:04;97268.63;;;31.05;100.00
74868;BME280;63419;42.262;12.210;2022-09-20T11:38:48;97246.09;;;33.11;100.00
74868;BME280;63419;42.262;12.210;2022-09-20T11:41:28;97238.19;;;35.67;100.00
74868;BME280;63419;42.262;12.210;2022-09-20T11:44:18;97222.50;;;37.86;95.53
74868;BME280;63419;42.262;12.210;2022-09-20T11:47:09;97230.09;;;37.79;87.39
74868;BME280;63419;42.262;12.210;2022-09-20T11:56:09;97222.38;;;34.81;96.83
74868;BME280;63419;42.262;12.210;2022-09-20T11:58:53;97203.94;;;37.45;76.45
74868;BME280;63419;42.262;12.210;2022-09-20T12:01:29;97204.06;;;38.52;72.31
74868;BME280;63419;42.262;12.210;2022-09-20T12:04:09;97204.75;;;39.30;63.36
74868;BME280;63419;42.262;12.210;2022-09-20T12:06:39;97203.13;;;36.90;75.06
74868;BME280;63419;42.262;12.210;2022-09-20T12:09:57;97184.97;;;40.20;64.12
74868;BME280;63419;42.262;12.210;2022-09-20T12:12:47;97186.13;;;40.00;61.39
74868;BME280;63419;42.262;12.210;2022-09-20T12:15:37;97175.34;;;42.81;55.06
74868;BME280;63419;42.262;12.210;2022-09-20T12:21:03;97191.72;;;37.13;75.58
74868;BME280;63419;42.262;12.210;2022-09-20T12:26:10;97206.88;;;34.88;100.00
74868;BME280;63419;42.262;12.210;2022-09-20T12:28:48;97207.84;;;32.83;100.00
74868;BME280;63419;42.262;12.210;2022-09-20T12:39:30;97209.56;;;31.08;98.46
74868;BME280;63419;42.262;12.210;2022-09-20T12:45:04;97205.44;;;31.58;100.00
74868;BME280;63419;42.262;12.210;2022-09-20T12:47:35;97191.81;;;32.05;100.00
74868;BME280;63419;42.262;12.210;2022-09-20T12:50:12;97196.06;;;30.86;100.00
74868;BME280;63419;42.262;12.210;2022-09-20T12:53:00;97197.53;;;31.05;100.00
74868;BME280;63419;42.262;12.210;2022-09-20T12:55:52;97197.34;;;30.83;100.00
74868;BME280;63419;42.262;12.210;2022-09-20T12:58:51;97163.81;;;37.04;84.66
74868;BME280;63419;42.262;12.210;2022-09-20T13:03:49;97168.47;;;33.23;100.00
74868;BME280;63419;42.262;12.210;2022-09-20T13:12:03;97183.66;;;31.32;100.00
74868;BME280;63419;42.262;12.210;2022-09-20T13:14:31;97187.75;;;30.82;100.00
74868;BME280;63419;42.262;12.210;2022-09-20T13:17:25;97171.03;;;30.99;100.00
74868;BME280;63419;42.262;12.210;2022-09-20T13:19:55;97175.16;;;31.81;100.00
74868;BME280;63419;42.262;12.210;2022-09-20T13:22:36;97163.53;;;32.43;100.00
74868;BME280;63419;42.262;12.210;2022-09-20T13:25:28;97175.13;;;31.64;100.00
74868;BME280;63419;42.262;12.210;2022-09-20T13:28:08;97169.03;;;30.65;100.00
74868;BME280;63419;42.262;12.210;2022-09-20T13:30:36;97172.53;;;28.92;100.00
74868;BME280;63419;42.262;12.210;2022-09-20T13:33:23;97170.44;;;28.82;100.00
74868;BME280;63419;42.262;12.210;2022-09-20T13:35:57;97172.50;;;28.62;100.00
74868;BME280;63419;42.262;12.210;2022-09-20T13:38:30;97159.75;;;29.61;100.00
74868;BME280;63419;42.262;12.210;2022-09-20T13:41:11;97168.16;;;29.47;100.00
74868;BME280;63419;42.262;12.210;2022-09-20T13:43:45;97161.78;;;29.48;100.00
74868;BME280;63419;42.262;12.210;2022-09-20T13:46:20;97162.00;;;29.04;100.00
74868;BME280;63419;42.262;12.210;2022-09-20T13:49:08;97157.06;;;30.04;100.00
74868;BME280;63419;42.262;12.210;2022-09-20T13:51:34;97135.19;;;35.68;92.82
74868;BME280;63419;42.262;12.210;2022-09-20T13:54:31;97149.16;;;31.42;100.00
74868;BME280;63419;42.262;12.210;2022-09-20T13:57:18;97141.59;;;32.85;100.00
74868;BME280;63419;42.262;12.210;2022-09-20T13:59:47;97145.69;;;32.27;100.00
74868;BME280;63419;42.262;12.210;2022-09-20T14:02:30;97154.16;;;29.09;100.00
74868;BME280;63419;42.262;12.210;2022-09-20T14:05:04;97156.28;;;29.73;100.00
74868;BME280;63419;42.262;12.210;2022-09-20T14:07:32;97152.19;;;29.77;100.00
74868;BME280;63419;42.262;12.210;2022-09-20T14:09:58;97153.63;;;29.73;100.00
74868;BME280;63419;42.262;12.210;2022-09-20T14:12:46;97161.97;;;27.61;100.00
74868;BME280;63419;42.262;12.210;2022-09-20T14:15:14;97179.66;;;26.05;100.00
74868;BME280;63419;42.262;12.210;2022-09-20T14:17:41;97178.16;;;24.74;100.00
74868;BME280;63419;42.262;12.210;2022-09-20T14:20:14;97178.63;;;24.91;100.00
74868;BME280;63419;42.262;12.210;2022-09-20T14:22:47;97174.19;;;24.98;100.00
74868;BME280;63419;42.262;12.210;2022-09-20T14:27:43;97176.44;;;23.97;100.00
74868;BME280;63419;42.262;12.210;2022-09-20T14:30:33;97167.44;;;24.12;100.00
74868;BME280;63419;42.262;12.210;2022-09-20T14:33:05;97179.34;;;24.37;100.00
74868;BME280;63419;42.262;12.210;2022-09-20T14:35:50;97176.03;;;24.21;100.00
74868;BME280;63419;42.262;12.210;2022-09-20T14:38:34;97171.16;;;24.53;100.00
74868;BME280;63419;42.262;12.210;2022-09-20T14:41:02;97181.94;;;25.06;100.00
74868;BME280;63419;42.262;12.210;2022-09-20T14:43:34;97176.69;;;25.20;100.00
74868;BME280;63419;42.262;12.210;2022-09-20T14:46:15;97178.22;;;26.16;100.00
74868;BME280;63419;42.262;12.210;2022-09-20T14:48:44;97175.19;;;26.12;100.00
74868;BME280;63419;42.262;12.210;2022-09-20T14:53:49;97180.25;;;25.80;100.00
74868;BME280;63419;42.262;12.210;2022-09-20T14:56:34;97180.78;;;26.63;100.00
74868;BME280;63419;42.262;12.210;2022-09-20T14:59:42;97168.63;;;28.39;100.00
74868;BME280;63419;42.262;12.210;2022-09-20T15:02:12;97149.28;;;31.98;100.00
74868;BME280;63419;42.262;12.210;2022-09-20T15:04:40;97168.09;;;28.56;100.00
74868;BME280;63419;42.262;12.210;2022-09-20T15:07:16;97159.53;;;29.63;100.00
74868;BME280;63419;42.262;12.210;2022-09-20T15:09:42;97164.00;;;27.59;100.00
74868;BME280;63419;42.262;12.210;2022-09-20T15:12:18;97171.09;;;27.97;100.00
74868;BME280;63419;42.262;12.210;2022-09-20T15:14:45;97164.38;;;27.95;100.00
74868;BME280;63419;42.262;12.210;2022-09-20T15:17:19;97165.81;;;27.65;100.00
74868;BME280;63419;42.262;12.210;2022-09-20T15:19:47;97164.19;;;27.32;100.00
74868;BME280;63419;42.262;12.210;2022-09-20T15:22:14;97171.16;;;27.20;100.00
74868;BME280;63419;42.262;12.210;2022-09-20T15:24:43;97175.16;;;26.26;100.00
74868;BME280;63419;42.262;12.210;2022-09-20T15:27:11;97165.41;;;27.37;100.00
74868;BME280;63419;42.262;12.210;2022-09-20T15:29:40;97168.59;;;26.48;100.00
74868;BME280;63419;42.262;12.210;2022-09-20T15:32:09;97174.97;;;25.87;100.00
74868;BME280;63419;42.262;12.210;2022-09-20T15:34:35;97175.59;;;25.69;100.00
74868;BME280;63419;42.262;12.210;2022-09-20T15:37:01;97177.91;;;25.24;100.00
74868;BME280;63419;42.262;12.210;2022-09-20T15:39:27;97187.38;;;24.98;100.00
74868;BME280;63419;42.262;12.210;2022-09-20T15:41:55;97183.50;;;24.87;100.00
74868;BME280;63419;42.262;12.210;2022-09-20T15:44:21;97182.78;;;25.14;100.00
74868;BME280;63419;42.262;12.210;2022-09-20T15:46:50;97184.75;;;24.98;100.00
74868;BME280;63419;42.262;12.210;2022-09-20T15:49:18;97179.00;;;25.63;100.00
74868;BME280;63419;42.262;12.210;2022-09-20T15:51:45;97175.53;;;26.36;100.00
74868;BME280;63419;42.262;12.210;2022-09-20T15:54:14;97175.25;;;27.16;100.00
74868;BME280;63419;42.262;12.210;2022-09-20T15:56:44;97163.31;;;28.21;100.00
74868;BME280;63419;42.262;12.210;2022-09-20T15:59:11;97157.66;;;29.21;100.00
74868;BME280;63419;42.262;12.210;2022-09-20T16:01:44;97162.75;;;29.65;100.00
74868;BME280;63419;42.262;12.210;2022-09-20T16:04:18;97156.69;;;30.88;100.00
74868;BME280;63419;42.262;12.210;2022-09-20T16:06:48;97151.94;;;31.02;100.00
74868;BME280;63419;42.262;12.210;2022-09-20T16:09:16;97144.22;;;32.36;100.00
74868;BME280;63419;42.262;12.210;2022-09-20T16:11:42;97154.19;;;28.91;100.00
74868;BME280;63419;42.262;12.210;2022-09-20T16:14:08;97139.28;;;33.43;100.00
74868;BME280;63419;42.262;12.210;2022-09-20T16:16:35;97156.69;;;30.88;100.00
74868;BME280;63419;42.262;12.210;2022-09-20T16:19:01;97132.06;;;32.89;100.00
74868;BME280;63419;42.262;12.210;2022-09-20T16:21:54;97136.06;;;34.69;88.42
74868;BME280;63419;42.262;12.210;2022-09-20T16:24:26;97137.09;;;34.58;78.51
74868;BME280;63419;42.262;12.210;2022-09-20T16:26:53;97138.28;;;33.82;79.82
74868;BME280;63419;42.262;12.210;2022-09-20T16:29:19;97149.78;;;32.34;89.49
74868;BME280;63419;42.262;12.210;2022-09-20T16:31:48;97151.78;;;32.05;100.00
74868;BME280;63419;42.262;12.210;2022-09-20T16:34:20;97148.81;;;31.84;100.00
74868;BME280;63419;42.262;12.210;2022-09-20T16:36:51;97150.78;;;31.94;98.83
74868;BME280;63419;42.262;12.210;2022-09-20T16:39:20;97149.38;;;31.53;100.00
74868;BME280;63419;42.262;12.210;2022-09-20T16:41:58;97165.19;;;29.24;100.00
74868;BME280;63419;42.262;12.210;2022-09-20T16:44:39;97157.38;;;30.19;100.00
74868;BME280;63419;42.262;12.210;2022-09-20T16:47:14;97171.34;;;29.07;100.00
74868;BME280;63419;42.262;12.210;2022-09-20T16:49:49;97171.88;;;27.72;100.00
74868;BME280;63419;42.262;12.210;2022-09-20T16:52:20;97179.06;;;27.97;100.00
74868;BME280;63419;42.262;12.210;2022-09-20T16:54:50;97203.28;;;23.42;100.00
74868;BME280;63419;42.262;12.210;2022-09-20T16:57:16;97197.78;;;24.58;100.00
74868;BME280;63419;42.262;12.210;2022-09-20T16:59:43;97198.78;;;23.57;100.00
74868;BME280;63419;42.262;12.210;2022-09-20T17:02:13;97199.75;;;24.21;100.00
74868;BME280;63419;42.262;12.210;2022-09-20T17:04:43;97209.72;;;23.18;100.00
74868;BME280;63419;42.262;12.210;2022-09-20T17:07:12;97207.94;;;22.89;100.00
74868;BME280;63419;42.262;12.210;2022-09-20T17:09:38;97203.69;;;22.28;100.00
74868;BME280;63419;42.262;12.210;2022-09-20T17:12:04;97216.81;;;21.90;100.00
74868;BME280;63419;42.262;12.210;2022-09-20T17:14:33;97212.16;;;21.54;100.00
74868;BME280;63419;42.262;12.210;2022-09-20T17:16:59;97214.31;;;21.51;100.00
74868;BME280;63419;42.262;12.210;2022-09-20T17:19:25;97216.09;;;21.27;100.00
74868;BME280;63419;42.262;12.210;2022-09-20T17:21:54;97211.09;;;21.09;100.00
74868;BME280;63419;42.262;12.210;2022-09-20T17:24:25;97228.06;;;20.90;100.00
74868;BME280;63419;42.262;12.210;2022-09-20T17:26:54;97217.91;;;20.87;100.00
74868;BME280;63419;42.262;12.210;2022-09-20T17:29:22;97229.81;;;20.50;100.00
74868;BME280;63419;42.262;12.210;2022-09-20T17:31:50;97232.59;;;20.65;100.00
74868;BME280;63419;42.262;12.210;2022-09-20T17:34:17;97229.75;;;20.75;100.00
74868;BME280;63419;42.262;12.210;2022-09-20T17:36:46;97233.81;;;20.85;100.00
74868;BME280;63419;42.262;12.210;2022-09-20T17:39:14;97232.59;;;20.65;100.00
74868;BME280;63419;42.262;12.210;2022-09-20T17:44:31;97242.94;;;20.42;100.00
74868;BME280;63419;42.262;12.210;2022-09-20T17:47:01;97247.84;;;20.61;100.00
74868;BME280;63419;42.262;12.210;2022-09-20T17:49:27;97245.03;;;20.63;100.00
74868;BME280;63419;42.262;12.210;2022-09-20T17:51:54;97248.03;;;20.27;100.00
74868;BME280;63419;42.262;12.210;2022-09-20T17:54:22;97250.47;;;20.45;100.00
74868;BME280;63419;42.262;12.210;2022-09-20T17:56:52;97242.09;;;20.49;100.00
74868;BME280;63419;42.262;12.210;2022-09-20T17:59:20;97245.06;;;20.46;100.00
74868;BME280;63419;42.262;12.210;2022-09-20T18:01:49;97254.75;;;20.29;100.00
74868;BME280;63419;42.262;12.210;2022-09-20T18:04:18;97252.59;;;20.41;100.00
74868;BME280;63419;42.262;12.210;2022-09-20T18:06:51;97252.13;;;20.29;100.00
74868;BME280;63419;42.262;12.210;2022-09-20T18:09:21;97246.56;;;20.08;100.00
74868;BME280;63419;42.262;12.210;2022-09-20T18:11:53;97257.56;;;19.95;100.00
74868;BME280;63419;42.262;12.210;2022-09-20T18:14:25;97256.72;;;20.11;100.00
74868;BME280;63419;42.262;12.210;2022-09-20T18:16:57;97261.78;;;19.80;100.00